sensor_id;sensor_type;location;lat;lon;timestamp;P1;durP1;ratioP1;P2;durP2;ratioP2
12112;SDS011;6120;52.250;8.478;2023-04-24T00:01:44;2.20;;;1.30;;
12112;SDS011;6120;52.250;8.478;2023-04-24T00:04:11;1.92;;;1.30;;
12112;SDS011;6120;52.250;8.478;2023-04-24T00:06:40;2.88;;;1.35;;
12112;SDS011;6120;52.250;8.478;2023-04-24T00:09:09;2.47;;;1.40;;
12112;SDS011;6120;52.250;8.478;2023-04-24T00:11:36;1.75;;;1.15;;
12112;SDS011;6120;52.250;8.478;2023-04-24T00:14:03;1.75;;;1.30;;
12112;SDS011;6120;52.250;8.478;2023-04-24T00:16:29;4.95;;;1.52;;
12112;SDS011;6120;52.250;8.478;2023-04-24T00:18:56;2.42;;;1.55;;
12112;SDS011;6120;52.250;8.478;2023-04-24T00:21:23;2.03;;;1.50;;
12112;SDS011;6120;52.250;8.478;2023-04-24T00:23:52;2.90;;;1.55;;
12112;SDS011;6120;52.250;8.478;2023-04-24T00:26:19;2.85;;;1.60;;
12112;SDS011;6120;52.250;8.478;2023-04-24T00:28:45;1.77;;;1.35;;
12112;SDS011;6120;52.250;8.478;2023-04-24T00:31:12;1.60;;;1.10;;
12112;SDS011;6120;52.250;8.478;2023-04-24T00:33:39;2.17;;;1.25;;
12112;SDS011;6120;52.250;8.478;2023-04-24T00:36:06;1.98;;;1.05;;
12112;SDS011;6120;52.250;8.478;2023-04-24T00:38:33;2.40;;;1.30;;
12112;SDS011;6120;52.250;8.478;2023-04-24T00:40:59;1.90;;;0.90;;
12112;SDS011;6120;52.250;8.478;2023-04-24T00:43:26;1.40;;;1.00;;
12112;SDS011;6120;52.250;8.478;2023-04-24T00:45:53;2.25;;;1.58;;
12112;SDS011;6120;52.250;8.478;2023-04-24T00:48:20;2.25;;;1.20;;
12112;SDS011;6120;52.250;8.478;2023-04-24T00:50:46;1.88;;;1.20;;
12112;SDS011;6120;52.250;8.478;2023-04-24T00:53:13;1.30;;;0.98;;
12112;SDS011;6120;52.250;8.478;2023-04-24T00:55:39;2.60;;;1.08;;
12112;SDS011;6120;52.250;8.478;2023-04-24T00:58:07;2.08;;;1.00;;
12112;SDS011;6120;52.250;8.478;2023-04-24T01:00:33;1.92;;;1.08;;
12112;SDS011;6120;52.250;8.478;2023-04-24T01:03:00;2.60;;;1.20;;
12112;SDS011;6120;52.250;8.478;2023-04-24T01:05:28;3.33;;;1.50;;
12112;SDS011;6120;52.250;8.478;2023-04-24T01:07:54;1.85;;;1.30;;
12112;SDS011;6120;52.250;8.478;2023-04-24T01:10:21;2.30;;;1.20;;
12112;SDS011;6120;52.250;8.478;2023-04-24T01:12:49;2.10;;;1.10;;
12112;SDS011;6120;52.250;8.478;2023-04-24T01:15:16;1.42;;;1.02;;
12112;SDS011;6120;52.250;8.478;2023-04-24T01:17:43;0.90;;;0.80;;
12112;SDS011;6120;52.250;8.478;2023-04-24T01:20:09;2.83;;;0.93;;
12112;SDS011;6120;52.250;8.478;2023-04-24T01:22:36;1.30;;;0.80;;
12112;SDS011;6120;52.250;8.478;2023-04-24T01:25:04;2.20;;;0.85;;
12112;SDS011;6120;52.250;8.478;2023-04-24T01:27:31;2.15;;;0.85;;
12112;SDS011;6120;52.250;8.478;2023-04-24T01:29:58;2.30;;;0.80;;
12112;SDS011;6120;52.250;8.478;2023-04-24T01:32:24;0.85;;;0.60;;
12112;SDS011;6120;52.250;8.478;2023-04-24T01:34:51;1.85;;;0.73;;
12112;SDS011;6120;52.250;8.478;2023-04-24T01:37:19;1.63;;;1.00;;
12112;SDS011;6120;52.250;8.478;2023-04-24T01:39:46;1.05;;;0.80;;
12112;SDS011;6120;52.250;8.478;2023-04-24T01:42:12;2.55;;;0.93;;
12112;SDS011;6120;52.250;8.478;2023-04-24T01:44:39;1.98;;;1.00;;
12112;SDS011;6120;52.250;8.478;2023-04-24T01:47:06;2.35;;;0.80;;
12112;SDS011;6120;52.250;8.478;2023-04-24T01:49:33;2.88;;;0.95;;
12112;SDS011;6120;52.250;8.478;2023-04-24T01:52:00;1.50;;;0.80;;
12112;SDS011;6120;52.250;8.478;2023-04-24T01:54:27;2.05;;;0.85;;
12112;SDS011;6120;52.250;8.478;2023-04-24T01:56:53;1.50;;;0.90;;
12112;SDS011;6120;52.250;8.478;2023-04-24T01:59:20;2.08;;;0.70;;
12112;SDS011;6120;52.250;8.478;2023-04-24T02:01:47;1.52;;;0.80;;
12112;SDS011;6120;52.250;8.478;2023-04-24T02:04:14;1.92;;;0.90;;
12112;SDS011;6120;52.250;8.478;2023-04-24T02:06:41;1.10;;;0.90;;
12112;SDS011;6120;52.250;8.478;2023-04-24T02:09:08;1.90;;;0.80;;
12112;SDS011;6120;52.250;8.478;2023-04-24T02:11:35;1.98;;;0.93;;
12112;SDS011;6120;52.250;8.478;2023-04-24T02:14:01;1.40;;;1.00;;
12112;SDS011;6120;52.250;8.478;2023-04-24T02:16:28;1.15;;;0.88;;
12112;SDS011;6120;52.250;8.478;2023-04-24T02:18:59;2.40;;;1.00;;
12112;SDS011;6120;52.250;8.478;2023-04-24T02:21:26;2.78;;;1.10;;
12112;SDS011;6120;52.250;8.478;2023-04-24T02:23:56;3.60;;;0.90;;
12112;SDS011;6120;52.250;8.478;2023-04-24T02:26:23;1.45;;;1.05;;
12112;SDS011;6120;52.250;8.478;2023-04-24T02:28:50;1.58;;;0.80;;
12112;SDS011;6120;52.250;8.478;2023-04-24T02:31:17;2.10;;;1.10;;
12112;SDS011;6120;52.250;8.478;2023-04-24T02:33:43;2.35;;;1.20;;
12112;SDS011;6120;52.250;8.478;2023-04-24T02:36:10;2.60;;;1.10;;
12112;SDS011;6120;52.250;8.478;2023-04-24T02:38:36;1.50;;;1.00;;
12112;SDS011;6120;52.250;8.478;2023-04-24T02:41:03;2.13;;;1.10;;
12112;SDS011;6120;52.250;8.478;2023-04-24T02:43:32;1.60;;;1.08;;
12112;SDS011;6120;52.250;8.478;2023-04-24T02:45:59;2.75;;;1.30;;
12112;SDS011;6120;52.250;8.478;2023-04-24T02:48:26;4.53;;;1.50;;
12112;SDS011;6120;52.250;8.478;2023-04-24T02:50:53;2.72;;;1.20;;
12112;SDS011;6120;52.250;8.478;2023-04-24T02:53:20;1.45;;;1.00;;
12112;SDS011;6120;52.250;8.478;2023-04-24T02:55:47;1.70;;;1.08;;
12112;SDS011;6120;52.250;8.478;2023-04-24T02:58:13;1.77;;;1.30;;
12112;SDS011;6120;52.250;8.478;2023-04-24T03:00:40;2.60;;;1.50;;
12112;SDS011;6120;52.250;8.478;2023-04-24T03:03:07;3.22;;;1.48;;
12112;SDS011;6120;52.250;8.478;2023-04-24T03:05:33;1.80;;;1.20;;
12112;SDS011;6120;52.250;8.478;2023-04-24T03:08:00;2.88;;;1.67;;
12112;SDS011;6120;52.250;8.478;2023-04-24T03:10:27;2.70;;;1.50;;
12112;SDS011;6120;52.250;8.478;2023-04-24T03:12:53;2.75;;;1.30;;
12112;SDS011;6120;52.250;8.478;2023-04-24T03:15:21;2.53;;;1.60;;
12112;SDS011;6120;52.250;8.478;2023-04-24T03:17:47;3.50;;;1.52;;
12112;SDS011;6120;52.250;8.478;2023-04-24T03:20:14;2.28;;;1.27;;
12112;SDS011;6120;52.250;8.478;2023-04-24T03:22:41;2.88;;;1.50;;
12112;SDS011;6120;52.250;8.478;2023-04-24T03:25:08;3.58;;;1.80;;
12112;SDS011;6120;52.250;8.478;2023-04-24T03:27:35;2.50;;;1.70;;
12112;SDS011;6120;52.250;8.478;2023-04-24T03:30:02;3.00;;;1.90;;
12112;SDS011;6120;52.250;8.478;2023-04-24T03:32:29;4.50;;;2.05;;
12112;SDS011;6120;52.250;8.478;2023-04-24T03:34:59;5.13;;;2.08;;
12112;SDS011;6120;52.250;8.478;2023-04-24T03:37:26;3.83;;;2.40;;
12112;SDS011;6120;52.250;8.478;2023-04-24T03:39:53;3.17;;;1.90;;
12112;SDS011;6120;52.250;8.478;2023-04-24T03:42:19;5.43;;;2.60;;
12112;SDS011;6120;52.250;8.478;2023-04-24T03:44:46;3.92;;;2.35;;
12112;SDS011;6120;52.250;8.478;2023-04-24T03:47:13;3.88;;;2.30;;
12112;SDS011;6120;52.250;8.478;2023-04-24T03:49:39;4.97;;;2.22;;
12112;SDS011;6120;52.250;8.478;2023-04-24T03:52:06;6.65;;;2.10;;
12112;SDS011;6120;52.250;8.478;2023-04-24T03:54:33;3.60;;;2.20;;
12112;SDS011;6120;52.250;8.478;2023-04-24T03:57:00;3.28;;;2.28;;
12112;SDS011;6120;52.250;8.478;2023-04-24T03:59:27;4.40;;;1.90;;
12112;SDS011;6120;52.250;8.478;2023-04-24T04:01:54;4.57;;;2.10;;
12112;SDS011;6120;52.250;8.478;2023-04-24T04:04:21;3.13;;;2.13;;
12112;SDS011;6120;52.250;8.478;2023-04-24T04:06:47;3.20;;;2.10;;
12112;SDS011;6120;52.250;8.478;2023-04-24T04:09:15;3.40;;;2.30;;
12112;SDS011;6120;52.250;8.478;2023-04-24T04:11:42;4.38;;;2.30;;
12112;SDS011;6120;52.250;8.478;2023-04-24T04:14:08;5.40;;;2.65;;
12112;SDS011;6120;52.250;8.478;2023-04-24T04:16:35;4.68;;;2.78;;
12112;SDS011;6120;52.250;8.478;2023-04-24T04:19:02;4.82;;;2.97;;
12112;SDS011;6120;52.250;8.478;2023-04-24T04:21:29;4.03;;;2.70;;
12112;SDS011;6120;52.250;8.478;2023-04-24T04:23:57;4.82;;;2.40;;
12112;SDS011;6120;52.250;8.478;2023-04-24T04:26:24;6.00;;;2.58;;
12112;SDS011;6120;52.250;8.478;2023-04-24T04:28:52;5.70;;;2.67;;
12112;SDS011;6120;52.250;8.478;2023-04-24T04:31:21;6.43;;;2.72;;
12112;SDS011;6120;52.250;8.478;2023-04-24T04:33:49;4.18;;;2.63;;
12112;SDS011;6120;52.250;8.478;2023-04-24T04:36:16;4.45;;;2.67;;
12112;SDS011;6120;52.250;8.478;2023-04-24T04:38:43;4.60;;;2.47;;
12112;SDS011;6120;52.250;8.478;2023-04-24T04:41:10;5.65;;;3.10;;
12112;SDS011;6120;52.250;8.478;2023-04-24T04:43:37;5.57;;;3.10;;
12112;SDS011;6120;52.250;8.478;2023-04-24T04:46:05;9.27;;;3.17;;
12112;SDS011;6120;52.250;8.478;2023-04-24T04:51:01;5.63;;;3.30;;
12112;SDS011;6120;52.250;8.478;2023-04-24T04:53:28;5.28;;;3.60;;
12112;SDS011;6120;52.250;8.478;2023-04-24T04:55:54;8.25;;;4.82;;
12112;SDS011;6120;52.250;8.478;2023-04-24T04:58:22;8.43;;;5.63;;
12112;SDS011;6120;52.250;8.478;2023-04-24T05:00:48;11.02;;;5.60;;
12112;SDS011;6120;52.250;8.478;2023-04-24T05:03:15;10.52;;;6.90;;
12112;SDS011;6120;52.250;8.478;2023-04-24T05:05:47;13.25;;;7.55;;
12112;SDS011;6120;52.250;8.478;2023-04-24T05:08:13;13.43;;;8.05;;
12112;SDS011;6120;52.250;8.478;2023-04-24T05:10:43;15.25;;;8.95;;
12112;SDS011;6120;52.250;8.478;2023-04-24T05:13:09;14.40;;;9.00;;
12112;SDS011;6120;52.250;8.478;2023-04-24T05:15:36;16.25;;;9.30;;
12112;SDS011;6120;52.250;8.478;2023-04-24T05:18:02;16.42;;;9.90;;
12112;SDS011;6120;52.250;8.478;2023-04-24T05:20:29;16.10;;;9.93;;
12112;SDS011;6120;52.250;8.478;2023-04-24T05:22:56;17.23;;;10.70;;
12112;SDS011;6120;52.250;8.478;2023-04-24T05:25:23;14.32;;;9.25;;
12112;SDS011;6120;52.250;8.478;2023-04-24T05:27:49;17.13;;;9.10;;
12112;SDS011;6120;52.250;8.478;2023-04-24T05:30:16;14.40;;;9.10;;
12112;SDS011;6120;52.250;8.478;2023-04-24T05:32:42;17.30;;;9.30;;
12112;SDS011;6120;52.250;8.478;2023-04-24T05:35:09;17.95;;;10.00;;
12112;SDS011;6120;52.250;8.478;2023-04-24T05:37:36;12.88;;;8.65;;
12112;SDS011;6120;52.250;8.478;2023-04-24T05:40:03;15.00;;;9.30;;
12112;SDS011;6120;52.250;8.478;2023-04-24T05:42:31;14.32;;;8.60;;
12112;SDS011;6120;52.250;8.478;2023-04-24T05:44:58;15.73;;;9.73;;
12112;SDS011;6120;52.250;8.478;2023-04-24T05:47:25;15.85;;;9.82;;
12112;SDS011;6120;52.250;8.478;2023-04-24T05:49:52;16.10;;;9.00;;
12112;SDS011;6120;52.250;8.478;2023-04-24T05:52:19;19.88;;;9.48;;
12112;SDS011;6120;52.250;8.478;2023-04-24T05:54:46;15.38;;;9.30;;
12112;SDS011;6120;52.250;8.478;2023-04-24T05:57:13;16.27;;;9.35;;
12112;SDS011;6120;52.250;8.478;2023-04-24T05:59:40;16.10;;;9.02;;
12112;SDS011;6120;52.250;8.478;2023-04-24T06:02:07;16.77;;;9.63;;
12112;SDS011;6120;52.250;8.478;2023-04-24T06:04:34;16.33;;;9.50;;
12112;SDS011;6120;52.250;8.478;2023-04-24T06:07:01;18.25;;;10.43;;
12112;SDS011;6120;52.250;8.478;2023-04-24T06:09:28;19.55;;;9.90;;
12112;SDS011;6120;52.250;8.478;2023-04-24T06:11:54;18.88;;;8.93;;
12112;SDS011;6120;52.250;8.478;2023-04-24T06:14:22;21.55;;;10.23;;
12112;SDS011;6120;52.250;8.478;2023-04-24T06:16:49;16.98;;;9.40;;
12112;SDS011;6120;52.250;8.478;2023-04-24T06:19:16;21.05;;;11.57;;
12112;SDS011;6120;52.250;8.478;2023-04-24T06:21:42;15.20;;;9.80;;
12112;SDS011;6120;52.250;8.478;2023-04-24T06:24:09;19.92;;;9.82;;
12112;SDS011;6120;52.250;8.478;2023-04-24T06:26:36;17.10;;;10.27;;
12112;SDS011;6120;52.250;8.478;2023-04-24T06:29:02;14.35;;;8.68;;
12112;SDS011;6120;52.250;8.478;2023-04-24T06:31:29;17.05;;;9.55;;
12112;SDS011;6120;52.250;8.478;2023-04-24T06:33:56;19.95;;;10.95;;
12112;SDS011;6120;52.250;8.478;2023-04-24T06:36:22;17.35;;;10.40;;
12112;SDS011;6120;52.250;8.478;2023-04-24T06:38:49;17.30;;;10.35;;
12112;SDS011;6120;52.250;8.478;2023-04-24T06:41:16;19.95;;;10.32;;
12112;SDS011;6120;52.250;8.478;2023-04-24T06:43:42;21.58;;;10.93;;
12112;SDS011;6120;52.250;8.478;2023-04-24T06:46:09;16.73;;;9.43;;
12112;SDS011;6120;52.250;8.478;2023-04-24T06:48:36;17.40;;;9.55;;
12112;SDS011;6120;52.250;8.478;2023-04-24T06:51:03;19.67;;;9.93;;
12112;SDS011;6120;52.250;8.478;2023-04-24T06:53:29;16.70;;;9.88;;
12112;SDS011;6120;52.250;8.478;2023-04-24T06:55:56;22.05;;;10.45;;
12112;SDS011;6120;52.250;8.478;2023-04-24T06:58:24;16.80;;;10.10;;
12112;SDS011;6120;52.250;8.478;2023-04-24T07:00:51;17.27;;;10.00;;
12112;SDS011;6120;52.250;8.478;2023-04-24T07:03:17;16.35;;;10.25;;
12112;SDS011;6120;52.250;8.478;2023-04-24T07:05:44;18.30;;;9.88;;
12112;SDS011;6120;52.250;8.478;2023-04-24T07:08:12;15.63;;;9.68;;
12112;SDS011;6120;52.250;8.478;2023-04-24T07:10:39;15.93;;;9.45;;
12112;SDS011;6120;52.250;8.478;2023-04-24T07:13:06;16.42;;;9.55;;
12112;SDS011;6120;52.250;8.478;2023-04-24T07:15:33;13.70;;;9.15;;
12112;SDS011;6120;52.250;8.478;2023-04-24T07:18:00;13.95;;;9.57;;
12112;SDS011;6120;52.250;8.478;2023-04-24T07:20:31;14.93;;;9.80;;
12112;SDS011;6120;52.250;8.478;2023-04-24T07:22:58;19.60;;;10.10;;
12112;SDS011;6120;52.250;8.478;2023-04-24T07:25:24;14.80;;;9.23;;
12112;SDS011;6120;52.250;8.478;2023-04-24T07:27:52;17.90;;;9.13;;
12112;SDS011;6120;52.250;8.478;2023-04-24T07:30:19;13.43;;;8.55;;
12112;SDS011;6120;52.250;8.478;2023-04-24T07:32:46;15.52;;;9.40;;
12112;SDS011;6120;52.250;8.478;2023-04-24T07:35:13;16.45;;;8.95;;
12112;SDS011;6120;52.250;8.478;2023-04-24T07:37:41;15.45;;;8.77;;
12112;SDS011;6120;52.250;8.478;2023-04-24T07:40:12;14.85;;;9.27;;
12112;SDS011;6120;52.250;8.478;2023-04-24T07:42:39;15.55;;;9.57;;
12112;SDS011;6120;52.250;8.478;2023-04-24T07:45:06;15.00;;;9.73;;
12112;SDS011;6120;52.250;8.478;2023-04-24T07:47:34;13.68;;;8.38;;
12112;SDS011;6120;52.250;8.478;2023-04-24T07:50:01;12.67;;;8.50;;
12112;SDS011;6120;52.250;8.478;2023-04-24T07:52:29;14.27;;;8.82;;
12112;SDS011;6120;52.250;8.478;2023-04-24T07:54:56;15.13;;;8.98;;
12112;SDS011;6120;52.250;8.478;2023-04-24T07:57:25;12.30;;;7.28;;
12112;SDS011;6120;52.250;8.478;2023-04-24T07:59:51;14.25;;;7.68;;
12112;SDS011;6120;52.250;8.478;2023-04-24T08:02:18;11.95;;;7.85;;
12112;SDS011;6120;52.250;8.478;2023-04-24T08:04:44;11.98;;;8.07;;
12112;SDS011;6120;52.250;8.478;2023-04-24T08:07:11;10.95;;;7.25;;
12112;SDS011;6120;52.250;8.478;2023-04-24T08:09:39;11.60;;;7.20;;
12112;SDS011;6120;52.250;8.478;2023-04-24T08:12:05;11.43;;;7.43;;
12112;SDS011;6120;52.250;8.478;2023-04-24T08:14:32;12.23;;;6.80;;
12112;SDS011;6120;52.250;8.478;2023-04-24T08:16:59;11.20;;;6.80;;
12112;SDS011;6120;52.250;8.478;2023-04-24T08:19:26;11.95;;;7.28;;
12112;SDS011;6120;52.250;8.478;2023-04-24T08:21:53;10.95;;;7.22;;
12112;SDS011;6120;52.250;8.478;2023-04-24T08:24:20;11.18;;;7.00;;
12112;SDS011;6120;52.250;8.478;2023-04-24T08:26:48;9.73;;;7.00;;
12112;SDS011;6120;52.250;8.478;2023-04-24T08:29:16;14.02;;;7.63;;
12112;SDS011;6120;52.250;8.478;2023-04-24T08:31:43;13.85;;;7.20;;
12112;SDS011;6120;52.250;8.478;2023-04-24T08:34:09;8.68;;;6.22;;
12112;SDS011;6120;52.250;8.478;2023-04-24T08:36:37;10.13;;;6.18;;
12112;SDS011;6120;52.250;8.478;2023-04-24T08:39:12;8.48;;;6.05;;
12112;SDS011;6120;52.250;8.478;2023-04-24T08:41:41;9.48;;;5.75;;
12112;SDS011;6120;52.250;8.478;2023-04-24T08:44:09;9.68;;;5.60;;
12112;SDS011;6120;52.250;8.478;2023-04-24T08:46:37;8.30;;;4.88;;
12112;SDS011;6120;52.250;8.478;2023-04-24T08:49:04;7.40;;;5.15;;
12112;SDS011;6120;52.250;8.478;2023-04-24T08:51:31;7.63;;;4.90;;
12112;SDS011;6120;52.250;8.478;2023-04-24T08:53:57;6.50;;;4.38;;
12112;SDS011;6120;52.250;8.478;2023-04-24T08:56:24;5.97;;;4.60;;
12112;SDS011;6120;52.250;8.478;2023-04-24T08:58:51;8.15;;;5.07;;
12112;SDS011;6120;52.250;8.478;2023-04-24T09:01:20;6.85;;;4.13;;
12112;SDS011;6120;52.250;8.478;2023-04-24T09:03:48;7.88;;;4.63;;
12112;SDS011;6120;52.250;8.478;2023-04-24T09:06:17;6.90;;;4.25;;
12112;SDS011;6120;52.250;8.478;2023-04-24T09:08:44;7.50;;;3.90;;
12112;SDS011;6120;52.250;8.478;2023-04-24T09:11:11;6.18;;;3.72;;
12112;SDS011;6120;52.250;8.478;2023-04-24T09:13:38;6.05;;;4.03;;
12112;SDS011;6120;52.250;8.478;2023-04-24T09:16:05;8.43;;;4.85;;
12112;SDS011;6120;52.250;8.478;2023-04-24T09:18:31;5.32;;;3.78;;
12112;SDS011;6120;52.250;8.478;2023-04-24T09:21:08;6.30;;;4.38;;
12112;SDS011;6120;52.250;8.478;2023-04-24T09:23:35;4.85;;;3.35;;
12112;SDS011;6120;52.250;8.478;2023-04-24T09:26:02;4.93;;;3.50;;
12112;SDS011;6120;52.250;8.478;2023-04-24T09:28:35;5.65;;;3.40;;
12112;SDS011;6120;52.250;8.478;2023-04-24T09:31:08;4.68;;;3.30;;
12112;SDS011;6120;52.250;8.478;2023-04-24T09:33:56;6.25;;;3.47;;
12112;SDS011;6120;52.250;8.478;2023-04-24T09:36:45;4.80;;;3.53;;
12112;SDS011;6120;52.250;8.478;2023-04-24T09:39:13;6.57;;;3.55;;
12112;SDS011;6120;52.250;8.478;2023-04-24T09:44:20;5.95;;;3.63;;
12112;SDS011;6120;52.250;8.478;2023-04-24T09:46:51;4.80;;;3.72;;
12112;SDS011;6120;52.250;8.478;2023-04-24T09:49:23;4.97;;;3.30;;
12112;SDS011;6120;52.250;8.478;2023-04-24T09:51:51;4.60;;;3.55;;
12112;SDS011;6120;52.250;8.478;2023-04-24T09:54:19;5.45;;;3.35;;
12112;SDS011;6120;52.250;8.478;2023-04-24T09:56:48;5.38;;;3.53;;
12112;SDS011;6120;52.250;8.478;2023-04-24T09:59:17;5.32;;;3.63;;
12112;SDS011;6120;52.250;8.478;2023-04-24T10:01:45;4.88;;;3.72;;
12112;SDS011;6120;52.250;8.478;2023-04-24T10:04:18;5.15;;;3.72;;
12112;SDS011;6120;52.250;8.478;2023-04-24T10:06:47;5.60;;;3.95;;
12112;SDS011;6120;52.250;8.478;2023-04-24T10:09:18;6.55;;;3.53;;
12112;SDS011;6120;52.250;8.478;2023-04-24T10:11:47;5.47;;;3.72;;
12112;SDS011;6120;52.250;8.478;2023-04-24T10:14:18;5.40;;;3.83;;
12112;SDS011;6120;52.250;8.478;2023-04-24T10:16:50;5.82;;;3.85;;
12112;SDS011;6120;52.250;8.478;2023-04-24T10:19:19;4.43;;;2.90;;
12112;SDS011;6120;52.250;8.478;2023-04-24T10:21:46;4.07;;;3.08;;
12112;SDS011;6120;52.250;8.478;2023-04-24T10:24:14;3.53;;;2.75;;
12112;SDS011;6120;52.250;8.478;2023-04-24T10:26:42;4.25;;;3.03;;
12112;SDS011;6120;52.250;8.478;2023-04-24T10:29:10;4.00;;;2.97;;
12112;SDS011;6120;52.250;8.478;2023-04-24T10:31:39;6.80;;;3.17;;
12112;SDS011;6120;52.250;8.478;2023-04-24T10:34:07;3.85;;;2.70;;
12112;SDS011;6120;52.250;8.478;2023-04-24T10:36:35;5.22;;;2.95;;
12112;SDS011;6120;52.250;8.478;2023-04-24T10:39:05;7.15;;;3.60;;
12112;SDS011;6120;52.250;8.478;2023-04-24T10:41:36;4.45;;;3.60;;
12112;SDS011;6120;52.250;8.478;2023-04-24T10:44:04;4.07;;;3.17;;
12112;SDS011;6120;52.250;8.478;2023-04-24T10:46:32;4.57;;;3.40;;
12112;SDS011;6120;52.250;8.478;2023-04-24T10:48:58;5.22;;;3.80;;
12112;SDS011;6120;52.250;8.478;2023-04-24T10:51:43;5.32;;;4.05;;
12112;SDS011;6120;52.250;8.478;2023-04-24T10:54:29;4.00;;;3.60;;
12112;SDS011;6120;52.250;8.478;2023-04-24T10:59:49;4.38;;;3.83;;
12112;SDS011;6120;52.250;8.478;2023-04-24T11:02:18;5.47;;;3.63;;
12112;SDS011;6120;52.250;8.478;2023-04-24T11:04:46;8.05;;;4.25;;
12112;SDS011;6120;52.250;8.478;2023-04-24T11:07:19;4.50;;;3.90;;
12112;SDS011;6120;52.250;8.478;2023-04-24T11:12:13;4.88;;;3.53;;
12112;SDS011;6120;52.250;8.478;2023-04-24T11:17:38;4.70;;;3.80;;
12112;SDS011;6120;52.250;8.478;2023-04-24T11:20:10;4.57;;;3.83;;
12112;SDS011;6120;52.250;8.478;2023-04-24T11:22:54;5.32;;;4.10;;
12112;SDS011;6120;52.250;8.478;2023-04-24T11:25:21;4.57;;;3.50;;
12112;SDS011;6120;52.250;8.478;2023-04-24T11:28:02;5.63;;;4.38;;
12112;SDS011;6120;52.250;8.478;2023-04-24T11:30:29;5.63;;;4.30;;
12112;SDS011;6120;52.250;8.478;2023-04-24T11:33:01;5.53;;;4.22;;
12112;SDS011;6120;52.250;8.478;2023-04-24T11:35:29;5.47;;;4.50;;
12112;SDS011;6120;52.250;8.478;2023-04-24T11:37:56;7.38;;;4.78;;
12112;SDS011;6120;52.250;8.478;2023-04-24T11:40:27;3.97;;;2.78;;
12112;SDS011;6120;52.250;8.478;2023-04-24T11:42:54;3.53;;;2.88;;
12112;SDS011;6120;52.250;8.478;2023-04-24T11:45:26;3.97;;;2.50;;
12112;SDS011;6120;52.250;8.478;2023-04-24T11:47:57;3.58;;;2.50;;
12112;SDS011;6120;52.250;8.478;2023-04-24T11:50:26;3.30;;;2.53;;
12112;SDS011;6120;52.250;8.478;2023-04-24T11:52:54;3.30;;;1.95;;
12112;SDS011;6120;52.250;8.478;2023-04-24T11:57:49;3.83;;;1.52;;
12112;SDS011;6120;52.250;8.478;2023-04-24T12:00:18;2.85;;;1.42;;
12112;SDS011;6120;52.250;8.478;2023-04-24T12:02:46;3.70;;;1.65;;
12112;SDS011;6120;52.250;8.478;2023-04-24T12:05:24;1.95;;;1.27;;
12112;SDS011;6120;52.250;8.478;2023-04-24T12:07:54;2.45;;;1.25;;
12112;SDS011;6120;52.250;8.478;2023-04-24T12:10:21;2.40;;;1.33;;
12112;SDS011;6120;52.250;8.478;2023-04-24T12:12:49;3.63;;;1.80;;
12112;SDS011;6120;52.250;8.478;2023-04-24T12:17:44;4.07;;;2.05;;
12112;SDS011;6120;52.250;8.478;2023-04-24T12:20:12;4.72;;;2.30;;
12112;SDS011;6120;52.250;8.478;2023-04-24T12:22:57;5.30;;;2.97;;
12112;SDS011;6120;52.250;8.478;2023-04-24T12:25:26;6.18;;;3.28;;
12112;SDS011;6120;52.250;8.478;2023-04-24T12:30:30;9.70;;;5.07;;
12112;SDS011;6120;52.250;8.478;2023-04-24T12:33:01;9.77;;;5.22;;
12112;SDS011;6120;52.250;8.478;2023-04-24T12:35:29;10.00;;;5.40;;
12112;SDS011;6120;52.250;8.478;2023-04-24T12:38:11;11.20;;;5.40;;
12112;SDS011;6120;52.250;8.478;2023-04-24T12:40:40;11.80;;;5.68;;
12112;SDS011;6120;52.250;8.478;2023-04-24T12:45:44;11.30;;;5.50;;
12112;SDS011;6120;52.250;8.478;2023-04-24T12:48:13;10.20;;;5.93;;
12112;SDS011;6120;52.250;8.478;2023-04-24T12:50:41;10.20;;;5.40;;
12112;SDS011;6120;52.250;8.478;2023-04-24T12:53:12;12.07;;;5.90;;
12112;SDS011;6120;52.250;8.478;2023-04-24T12:55:40;12.27;;;6.78;;
12112;SDS011;6120;52.250;8.478;2023-04-24T12:58:07;13.10;;;6.25;;
12112;SDS011;6120;52.250;8.478;2023-04-24T13:00:34;12.23;;;6.35;;
12112;SDS011;6120;52.250;8.478;2023-04-24T13:03:01;10.65;;;5.50;;
12112;SDS011;6120;52.250;8.478;2023-04-24T13:05:28;8.52;;;4.40;;
12112;SDS011;6120;52.250;8.478;2023-04-24T13:07:55;8.88;;;4.25;;
12112;SDS011;6120;52.250;8.478;2023-04-24T13:10:21;10.98;;;4.38;;
12112;SDS011;6120;52.250;8.478;2023-04-24T13:12:48;11.80;;;4.60;;
12112;SDS011;6120;52.250;8.478;2023-04-24T13:15:15;9.57;;;4.00;;
12112;SDS011;6120;52.250;8.478;2023-04-24T13:17:41;6.82;;;4.05;;
12112;SDS011;6120;52.250;8.478;2023-04-24T13:20:08;13.50;;;4.63;;
12112;SDS011;6120;52.250;8.478;2023-04-24T13:22:35;8.32;;;3.47;;
12112;SDS011;6120;52.250;8.478;2023-04-24T13:25:02;12.65;;;5.10;;
12112;SDS011;6120;52.250;8.478;2023-04-24T13:27:29;10.27;;;4.00;;
12112;SDS011;6120;52.250;8.478;2023-04-24T13:29:56;11.80;;;4.10;;
12112;SDS011;6120;52.250;8.478;2023-04-24T13:32:23;11.90;;;4.80;;
12112;SDS011;6120;52.250;8.478;2023-04-24T13:34:49;8.63;;;4.72;;
12112;SDS011;6120;52.250;8.478;2023-04-24T13:37:16;10.32;;;4.20;;
12112;SDS011;6120;52.250;8.478;2023-04-24T13:39:42;14.60;;;4.95;;
12112;SDS011;6120;52.250;8.478;2023-04-24T13:42:09;15.27;;;4.70;;
12112;SDS011;6120;52.250;8.478;2023-04-24T13:44:36;11.95;;;4.90;;
12112;SDS011;6120;52.250;8.478;2023-04-24T13:47:02;11.98;;;5.40;;
12112;SDS011;6120;52.250;8.478;2023-04-24T13:49:29;12.93;;;5.88;;
12112;SDS011;6120;52.250;8.478;2023-04-24T13:51:56;11.40;;;5.10;;
12112;SDS011;6120;52.250;8.478;2023-04-24T13:54:22;12.85;;;5.05;;
12112;SDS011;6120;52.250;8.478;2023-04-24T13:56:52;14.15;;;5.18;;
12112;SDS011;6120;52.250;8.478;2023-04-24T13:59:19;9.88;;;5.63;;
12112;SDS011;6120;52.250;8.478;2023-04-24T14:01:47;9.00;;;5.55;;
12112;SDS011;6120;52.250;8.478;2023-04-24T14:04:14;11.55;;;6.18;;
12112;SDS011;6120;52.250;8.478;2023-04-24T14:06:42;16.10;;;6.40;;
12112;SDS011;6120;52.250;8.478;2023-04-24T14:09:09;9.38;;;5.32;;
12112;SDS011;6120;52.250;8.478;2023-04-24T14:11:35;12.57;;;5.32;;
12112;SDS011;6120;52.250;8.478;2023-04-24T14:14:02;15.55;;;5.63;;
12112;SDS011;6120;52.250;8.478;2023-04-24T14:16:29;14.27;;;5.35;;
12112;SDS011;6120;52.250;8.478;2023-04-24T14:18:57;13.02;;;5.13;;
12112;SDS011;6120;52.250;8.478;2023-04-24T14:21:23;14.82;;;5.40;;
12112;SDS011;6120;52.250;8.478;2023-04-24T14:23:50;14.15;;;5.45;;
12112;SDS011;6120;52.250;8.478;2023-04-24T14:26:17;13.55;;;6.07;;
12112;SDS011;6120;52.250;8.478;2023-04-24T14:28:43;17.00;;;5.82;;
12112;SDS011;6120;52.250;8.478;2023-04-24T14:31:10;16.05;;;5.85;;
12112;SDS011;6120;52.250;8.478;2023-04-24T14:33:37;11.18;;;5.88;;
12112;SDS011;6120;52.250;8.478;2023-04-24T14:36:04;13.07;;;4.82;;
12112;SDS011;6120;52.250;8.478;2023-04-24T14:38:32;18.92;;;5.32;;
12112;SDS011;6120;52.250;8.478;2023-04-24T14:40:58;8.02;;;4.68;;
12112;SDS011;6120;52.250;8.478;2023-04-24T14:43:33;10.48;;;4.35;;
12112;SDS011;6120;52.250;8.478;2023-04-24T14:46:02;10.73;;;3.53;;
12112;SDS011;6120;52.250;8.478;2023-04-24T14:48:29;9.13;;;3.38;;
12112;SDS011;6120;52.250;8.478;2023-04-24T14:50:56;8.48;;;3.50;;
12112;SDS011;6120;52.250;8.478;2023-04-24T14:53:22;7.70;;;3.20;;
12112;SDS011;6120;52.250;8.478;2023-04-24T14:55:49;7.75;;;3.00;;
12112;SDS011;6120;52.250;8.478;2023-04-24T14:58:16;18.10;;;3.40;;
12112;SDS011;6120;52.250;8.478;2023-04-24T15:00:43;12.27;;;2.90;;
12112;SDS011;6120;52.250;8.478;2023-04-24T15:03:09;7.30;;;2.78;;
12112;SDS011;6120;52.250;8.478;2023-04-24T15:05:37;6.18;;;2.70;;
12112;SDS011;6120;52.250;8.478;2023-04-24T15:08:04;9.18;;;2.92;;
12112;SDS011;6120;52.250;8.478;2023-04-24T15:10:31;11.05;;;3.53;;
12112;SDS011;6120;52.250;8.478;2023-04-24T15:12:57;9.40;;;3.30;;
12112;SDS011;6120;52.250;8.478;2023-04-24T15:15:24;12.82;;;3.67;;
12112;SDS011;6120;52.250;8.478;2023-04-24T15:17:51;8.57;;;3.63;;
12112;SDS011;6120;52.250;8.478;2023-04-24T15:20:17;7.72;;;3.97;;
12112;SDS011;6120;52.250;8.478;2023-04-24T15:22:44;7.13;;;3.38;;